• Join FlightAware (Why Join?)
  • Login
  • US Flag 
02:30AM EDT


 

Airport Tracker/Info


-or-


 

Live Flight TrackerFlight Track Log ✈ THY710 ✈ 10-May-2013 ✈ LTBA / IST - OPRN / ISB

Flight Track Log - Related Links

Times and Time Zones

All times are in EDT time to prevent confusion due to time zone crossing. See the THY710 flight status page for this flight to view local times or setup timezone preferences in your user account.

Time Position Orientation Groundspeed Altitude Reporting Facility
EDT Latitude Longitude Course Direction KTS MPH feet Rate Location/Type
02:02PM 41.0860 28.8520 78° East 248 285 4,700  Level FlightAware
02:02PM 41.0950 28.8830 69° East 248 285 5,700 2,520 Climbing FlightAware
02:02PM 41.1070 28.9110 60° Northeast 261 300 6,600 2,580 Climbing FlightAware
02:03PM 41.1270 28.9560 59° Northeast 268 308 8,100 1,380 Climbing FlightAware
02:03PM 41.1480 29.0030 59° Northeast 268 308 8,100 2,820 Level FlightAware
02:03PM 41.1540 29.0150 56° Northeast 281 323 10,000 3,960 Climbing FlightAware
02:04PM 41.1910 29.0950 58° Northeast 299 344 12,100 2,400 Climbing FlightAware
02:05PM 41.2250 29.1730 60° Northeast 323 372 13,800 2,520 Climbing FlightAware
02:06PM 41.2580 29.2460 59° Northeast 326 375 15,700 2,220 Climbing FlightAware
02:07PM 41.3080 29.3580 59° Northeast 349 402 17,900 2,160 Climbing FlightAware
02:08PM 41.3440 29.4390 59° Northeast 358 412 19,500 2,220 Climbing FlightAware
02:08PM 41.3780 29.5140 59° Northeast 358 412 20,900 1,920 Climbing FlightAware
02:09PM 41.4170 29.6040 60° Northeast 368 423 22,300 1,740 Climbing FlightAware
02:10PM 41.4550 29.6900 59° Northeast 387 445 23,400 1,440 Climbing FlightAware
02:10PM 41.4810 29.7960 72° East 393 452 24,500 1,380 Climbing FlightAware
02:12PM 41.5160 29.9740 75° East 409 471 26,200 1,440 Climbing FlightAware
02:13PM 41.5520 30.1580 75° East 418 481 28,000 1,320 Climbing FlightAware
02:14PM 41.5860 30.3350 76° East 424 488 29,500 1,200 Climbing FlightAware
02:15PM 41.6210 30.5230 76° East 430 495 31,000 960 Climbing FlightAware
02:16PM 41.6440 30.6470 76° East 431 496 31,500 960 Climbing FlightAware
02:17PM 41.6680 30.7730 76° East 436 502 32,600 840 Climbing FlightAware
02:18PM 41.6920 30.9030 76° East 437 503 32,900 180 Climbing FlightAware
02:19PM 41.7130 31.0530 79° East 442 509 33,000 60 Climbing FlightAware
02:19PM 41.7230 31.1450 82° East 442 509 33,000  Level FlightAware
02:20PM 41.7320 31.2370 83° East 442 509 33,000  Level FlightAware
02:21PM 41.7440 31.3530 82° East 442 509 33,000  Level FlightAware
02:21PM 41.7490 31.3990 82° East 442 509 33,000  Level FlightAware
02:22PM 41.7590 31.4910 82° East 442 509 33,000  Level FlightAware
02:23PM 41.7710 31.6070 82° East 442 509 33,000  Level FlightAware
02:23PM 41.7810 31.6990 82° East 442 509 33,000  Level FlightAware
02:24PM 41.7900 31.7910 82° East 442 509 33,000  Level FlightAware
02:25PM 41.7560 32.0330 101° East 437 503 33,000  Level FlightAware
02:25PM 41.7600 32.1280 87° East 438 504 33,000  Level FlightAware
02:26PM 41.7650 32.2540 87° East 439 505 33,000  Level FlightAware
02:27PM 41.7690 32.3650 87° East 442 509 33,000  Level FlightAware
02:27PM 41.7730 32.4530 86° East 444 511 33,000  Level FlightAware
02:28PM 41.7760 32.5480 88° East 447 514 33,000  Level FlightAware
02:29PM 41.7820 32.6870 87° East 437 503 33,000  Level FlightAware
02:29PM 41.7850 32.7940 88° East 435 501 33,000  Level FlightAware
02:30PM 41.7900 32.9140 87° East 433 498 33,000  Level FlightAware
02:31PM 41.7930 33.0220 88° East 434 499 33,000  Level FlightAware
02:32PM 41.7970 33.1400 87° East 434 499 33,000  Level FlightAware
02:32PM 41.8000 33.2080 87° East 434 499 33,000  Level FlightAware
02:33PM 41.8030 33.3100 88° East 434 499 33,000  Level FlightAware
02:33PM 41.8070 33.4370 88° East 434 499 33,000  Level FlightAware
02:34PM 41.8100 33.5310 88° East 433 498 33,000  Level FlightAware
02:35PM 41.8120 33.6120 88° East 433 498 33,000  Level FlightAware
02:35PM 41.8160 33.7460 88° East 431 496 33,000  Level FlightAware
02:36PM 41.8190 33.8510 88° East 430 495 33,000  Level FlightAware
02:37PM 41.8210 33.9580 89° East 430 495 33,000  Level FlightAware
02:37PM 41.8240 34.0500 87° East 430 495 33,000  Level FlightAware
02:38PM 41.8270 34.1840 88° East 432 497 33,000  Level FlightAware
02:39PM 41.8300 34.3130 88° East 435 501 33,000  Level FlightAware
02:40PM 41.8330 34.4360 88° East 437 503 33,000  Level FlightAware
02:40PM 41.8350 34.5260 88° East 439 505 33,000  Level FlightAware
02:41PM 41.8380 34.6850 88° East 441 507 33,000  Level FlightAware
02:42PM 41.8390 34.7770 89° East 441 507 33,000  Level FlightAware
02:43PM 41.8420 34.8860 88° East 440 506 33,000  Level FlightAware
02:43PM 41.8450 34.9790 87° East 440 506 33,000  Level FlightAware
02:44PM 41.8470 35.0720 88° East 440 506 33,000  Level FlightAware
02:45PM 41.8500 35.1880 88° East 440 506 33,000  Level FlightAware
02:45PM 41.8520 35.2810 88° East 440 506 33,000  Level FlightAware
02:46PM 41.8550 35.3740 87° East 440 506 33,000  Level FlightAware
02:47PM 41.8570 35.4670 88° East 440 506 33,000  Level FlightAware
02:47PM 41.8600 35.5600 87° East 440 506 33,000  Level FlightAware
02:48PM 41.8630 35.6760 88° East 440 506 33,000  Level FlightAware
02:49PM 41.8650 35.7690 88° East 440 506 33,000  Level FlightAware
02:50PM 41.8670 35.8620 88° East 440 506 33,000  Level FlightAware
02:50PM 41.8700 35.9540 87° East 440 506 33,000  Level FlightAware
02:51PM 41.8720 36.0470 88° East 440 506 33,000  Level FlightAware
02:52PM 41.8750 36.1630 88° East 440 506 33,000 240 Level FlightAware
02:54PM 41.8605 36.4590 94° East  Level Estimated
02:55PM 41.8521 36.6235 94° East  Level Estimated
02:56PM 41.8435 36.7878 94° East  Level Estimated
02:57PM 41.8346 36.9521 94° East  Level Estimated
02:58PM 41.8255 37.1164 94° East  Level Estimated
02:58PM 41.8580 37.4660 94° East 446 513 35,000  Level FlightAware
02:59PM 41.8580 37.5770 90° East 446 513 35,000  Level FlightAware
03:00PM 41.8570 37.7100 91° East 439 505 35,000  Level FlightAware
03:00PM 41.8570 37.7910 90° East 439 505 35,000  Level FlightAware
03:01PM 41.8570 37.8830 90° East 439 505 35,000  Level FlightAware
03:02PM 41.8540 38.0390 91° East 446 513 35,000  Level FlightAware
03:02PM 41.8540 38.1390 90° East 446 513 35,000  Level FlightAware
03:03PM 41.8520 38.2930 91° East 447 514 35,000  Level FlightAware
03:04PM 41.8500 38.4050 91° East 447 514 35,000  Level FlightAware
03:05PM 41.8480 38.5390 91° East 447 514 35,000  Level FlightAware
03:05PM 41.8470 38.6360 91° East 448 516 35,000  Level FlightAware
03:06PM 41.8450 38.7570 91° East 449 517 35,000  Level FlightAware
03:07PM 41.8430 38.8790 91° East 449 517 35,000  Level FlightAware
03:07PM 41.8420 38.9740 91° East 449 517 35,000  Level FlightAware
03:08PM 41.8410 39.0690 91° East 449 517 35,000  Level FlightAware
03:09PM 41.8400 39.1630 91° East 449 517 35,000  Level FlightAware
03:10PM 41.8380 39.2820 91° East 449 517 35,000  Level FlightAware
03:10PM 41.8370 39.3770 91° East 449 517 35,000  Level FlightAware
03:11PM 41.8350 39.4710 92° East 449 517 35,000  Level FlightAware
03:12PM 41.8260 39.7060 93° East 457 526 35,000  Level FlightAware
03:12PM 41.8240 39.8070 91° East 457 526 35,000  Level FlightAware
03:13PM 41.8230 39.9280 91° East 457 526 35,000  Level FlightAware
03:14PM 41.8170 40.0700 93° East 461 531 35,000  Level FlightAware
03:14PM 41.8130 40.1810 93° East 462 532 35,000  Level FlightAware
03:15PM 41.8100 40.3200 92° East 464 534 35,000  Level FlightAware
03:16PM 41.8060 40.4320 93° East 465 535 35,000  Level FlightAware
03:17PM 41.8030 40.5330 92° East 453 521 35,000  Level FlightAware
03:17PM 41.8000 40.6450 92° East 453 521 35,000  Level FlightAware
03:18PM 41.7980 40.7400 92° East 453 521 35,000  Level FlightAware
03:19PM 41.7950 40.8360 92° East 453 521 35,000  Level FlightAware
03:19PM 41.7920 40.9550 92° East 453 521 35,000  Level FlightAware
03:20PM 41.7900 41.0510 92° East 453 521 35,000  Level FlightAware
03:21PM 41.7870 41.1460 92° East 453 521 35,000  Level FlightAware
03:21PM 41.7850 41.2420 92° East 453 521 35,000  Level FlightAware
03:22PM 41.7820 41.3370 92° East 453 521 35,000  Level FlightAware
03:23PM 41.7790 41.4570 92° East 453 521 35,000  Level FlightAware
03:24PM 41.7760 41.5520 92° East 453 521 35,000  Level FlightAware
03:24PM 41.7740 41.6480 92° East 453 521 35,000  Level FlightAware
03:25PM 41.7710 41.7430 92° East 453 521 35,000  Level FlightAware
03:26PM 41.7690 41.8390 92° East 453 521 35,000  Level FlightAware
03:26PM 41.7660 41.9340 92° East 453 521 35,000  Level FlightAware
03:29PM 41.7269 42.2949 98° East  Level Estimated
03:30PM 41.7089 42.4575 98° East  Level Estimated
03:31PM 41.6906 42.6201 98° East  Level Estimated
03:32PM 41.6721 42.7826 99° East  Level Estimated
03:33PM 41.6534 42.9449 99° East  Level Estimated
03:34PM 41.6345 43.1072 99° East  Level Estimated
03:35PM 41.6153 43.2694 99° East  Level Estimated
03:36PM 41.5959 43.4315 99° East  Level Estimated
03:37PM 41.5763 43.5935 99° East  Level Estimated
03:38PM 41.5565 43.7554 99° East  Level Estimated
03:38PM 41.5680 44.2410 99° East 35,000  Level FlightAware
03:39PM 41.5300 44.4000 108° East 465 535 35,000  Level FlightAware
03:40PM 41.5000 44.5230 108° East 467 537 35,000  Level FlightAware
03:40PM 41.4720 44.6330 109° East 468 539 35,000  Level FlightAware
03:42PM 41.4290 44.8080 108° East 468 539 35,000  Level FlightAware
03:42PM 41.4060 44.9020 108° East 468 539 35,000  Level FlightAware
03:43PM 41.3780 45.0180 108° East 468 539 35,000  Level FlightAware
03:44PM 41.3550 45.1120 108° East 468 539 35,000  Level FlightAware
03:44PM 41.3320 45.2050 108° East 468 539 35,000  Level FlightAware
03:45PM 41.3090 45.2980 108° East 468 539 35,000  Level FlightAware
03:46PM 41.2870 45.3910 107° East 468 539 35,000  Level FlightAware
03:46PM 41.2640 45.4840 108° East 468 539 35,000  Level FlightAware
03:47PM 41.2350 45.6010 108° East 468 539 35,000  Level FlightAware
03:48PM 41.2130 45.6940 107° East 468 539 35,000  Level FlightAware
03:49PM 41.1900 45.7870 108° East 468 539 35,000  Level FlightAware
03:49PM 41.1670 45.8800 108° East 468 539 35,000  Level FlightAware
03:50PM 41.1390 45.9960 108° East 468 539 35,000  Level FlightAware
03:51PM 41.1160 46.0890 108° East 468 539 35,000  Level FlightAware
03:53PM 41.0750 46.3771 101° East  Level Estimated
03:54PM 41.0519 46.5369 101° East  Level Estimated
03:55PM 41.0286 46.6967 101° East  Level Estimated
03:56PM 41.0051 46.8564 101° East  Level Estimated
03:57PM 40.9813 47.0159 101° East  Level Estimated
03:58PM 40.9574 47.1754 101° East  Level Estimated
03:59PM 40.9332 47.3347 101° East  Level Estimated
04:00PM 40.9087 47.4939 101° East  Level Estimated
04:01PM 40.8841 47.6529 102° East  Level Estimated
04:02PM 40.8593 47.8119 102° East  Level Estimated
04:03PM 40.8342 47.9707 102° East  Level Estimated
04:04PM 40.8089 48.1295 102° East  Level Estimated
04:05PM 40.7834 48.2881 102° East  Level Estimated
04:06PM 40.7577 48.4465 102° East  Level Estimated
04:07PM 40.7318 48.6049 102° East  Level Estimated
04:08PM 40.7056 48.7631 102° East  Level Estimated
04:09PM 40.6793 48.9212 102° East  Level Estimated
04:10PM 40.6527 49.0792 102° East  Level Estimated
04:11PM 40.6259 49.2370 103° East  Level Estimated
04:12PM 40.5989 49.3947 103° East  Level Estimated
04:13PM 40.5717 49.5523 103° East  Level Estimated
04:14PM 40.5442 49.7098 103° East  Level Estimated
04:15PM 40.5166 49.8671 103° East  Level Estimated
04:16PM 40.4887 50.0244 103° East  Level Estimated
04:17PM 40.4606 50.1814 103° East  Level Estimated
04:18PM 40.4323 50.3384 103° East  Level Estimated
04:19PM 40.4038 50.4952 103° East  Level Estimated
04:20PM 40.3751 50.6519 103° East  Level Estimated
04:21PM 40.3462 50.8084 104° East  Level Estimated
04:22PM 40.3170 50.9648 104° East  Level Estimated
04:23PM 40.2877 51.1211 104° East  Level Estimated
04:24PM 40.2581 51.2772 104° East  Level Estimated
04:25PM 40.2284 51.4332 104° East  Level Estimated
04:26PM 40.1984 51.5891 104° East  Level Estimated
04:27PM 40.1682 51.7448 104° East  Level Estimated
04:28PM 40.1378 51.9004 104° East  Level Estimated
04:29PM 40.1072 52.0559 104° East  Level Estimated
04:30PM 40.0764 52.2112 104° East  Level Estimated
04:31PM 40.0454 52.3663 105° East  Level Estimated
04:32PM 40.0142 52.5214 105° East  Level Estimated
04:33PM 39.9827 52.6762 105° East  Level Estimated
04:34PM 39.9511 52.8310 105° East  Level Estimated
04:35PM 39.9193 52.9856 105° East  Level Estimated
04:36PM 39.8872 53.1400 105° East  Level Estimated
04:37PM 39.8549 53.2943 105° East  Level Estimated
04:38PM 39.8225 53.4485 105° East  Level Estimated
04:39PM 39.7898 53.6025 105° East  Level Estimated
04:40PM 39.7570 53.7564 105° East  Level Estimated
04:41PM 39.7239 53.9101 106° East  Level Estimated
04:42PM 39.6907 54.0636 106° East  Level Estimated
04:43PM 39.6572 54.2171 106° East  Level Estimated
04:44PM 39.6235 54.3703 106° East  Level Estimated
04:45PM 39.5896 54.5235 106° East  Level Estimated
04:46PM 39.5556 54.6765 106° East  Level Estimated
04:47PM 39.5213 54.8293 106° East  Level Estimated
04:48PM 39.4868 54.9820 106° East  Level Estimated
04:49PM 39.4522 55.1345 106° East  Level Estimated
04:50PM 39.4173 55.2868 106° East  Level Estimated
04:51PM 39.3822 55.4391 107° East  Level Estimated
04:52PM 39.3470 55.5911 107° East  Level Estimated
04:53PM 39.3115 55.7430 107° East  Level Estimated
04:54PM 39.2758 55.8948 107° East  Level Estimated
04:55PM 39.2400 56.0464 107° East  Level Estimated
04:56PM 39.2039 56.1978 107° East  Level Estimated
04:57PM 39.1676 56.3491 107° East  Level Estimated
04:58PM 39.1312 56.5003 107° East  Level Estimated
04:59PM 39.0946 56.6512 107° East  Level Estimated
05:00PM 39.0577 56.8021 107° East  Level Estimated
05:01PM 39.0207 56.9527 108° East  Level Estimated
05:02PM 38.9835 57.1032 108° East  Level Estimated
05:03PM 38.9460 57.2536 108° East  Level Estimated
05:04PM 38.9084 57.4038 108° East  Level Estimated
05:05PM 38.8706 57.5538 108° East  Level Estimated
05:06PM 38.8326 57.7037 108° East  Level Estimated
05:07PM 38.7944 57.8534 108° East  Level Estimated
05:08PM 38.7561 58.0029 108° East  Level Estimated
05:09PM 38.7175 58.1523 108° East  Level Estimated
05:10PM 38.6787 58.3015 108° East  Level Estimated
05:11PM 38.6398 58.4506 108° East  Level Estimated
05:12PM 38.6007 58.5995 109° East  Level Estimated
05:13PM 38.5613 58.7482 109° East  Level Estimated
05:14PM 38.5218 58.8968 109° East  Level Estimated
05:15PM 38.4821 59.0452 109° East  Level Estimated
05:16PM 38.4422 59.1935 109° East  Level Estimated
05:17PM 38.4022 59.3415 109° East  Level Estimated
05:18PM 38.3619 59.4894 109° East  Level Estimated
05:19PM 38.3215 59.6372 109° East  Level Estimated
05:20PM 38.2808 59.7848 109° East  Level Estimated
05:21PM 38.2400 59.9322 109° East  Level Estimated
05:22PM 38.1990 60.0795 109° East  Level Estimated
05:23PM 38.1578 60.2266 110° East  Level Estimated
05:24PM 38.1165 60.3735 110° East  Level Estimated
05:25PM 38.0749 60.5202 110° East  Level Estimated
05:26PM 38.0332 60.6668 110° East  Level Estimated
05:27PM 37.9913 60.8133 110° East  Level Estimated
05:28PM 37.9492 60.9595 110° East  Level Estimated
05:29PM 37.9069 61.1056 110° East  Level Estimated
05:30PM 37.8645 61.2515 110° East  Level Estimated
05:31PM 37.8218 61.3973 110° East  Level Estimated
05:32PM 37.7790 61.5428 110° East  Level Estimated
05:33PM 37.7360 61.6883 110° East  Level Estimated
05:34PM 37.6929 61.8335 111° Southeast  Level Estimated
05:35PM 37.6495 61.9786 111° Southeast  Level Estimated
05:36PM 37.6060 62.1235 111° Southeast  Level Estimated
05:37PM 37.5623 62.2682 111° Southeast  Level Estimated
05:38PM 37.5184 62.4128 111° Southeast  Level Estimated
05:39PM 37.4743 62.5571 111° Southeast  Level Estimated
05:40PM 37.4301 62.7014 111° Southeast  Level Estimated
05:41PM 37.3857 62.8454 111° Southeast  Level Estimated
05:42PM 37.3411 62.9893 111° Southeast  Level Estimated
05:43PM 37.2964 63.1330 111° Southeast  Level Estimated
05:44PM 37.2514 63.2765 111° Southeast  Level Estimated
05:45PM 37.2063 63.4199 112° Southeast  Level Estimated
05:46PM 37.1611 63.5631 112° Southeast  Level Estimated
05:47PM 37.1156 63.7061 112° Southeast  Level Estimated
05:48PM 37.0700 63.8490 112° Southeast  Level Estimated
05:49PM 37.0242 63.9917 112° Southeast  Level Estimated
05:50PM 36.9782 64.1342 112° Southeast  Level Estimated
05:51PM 36.9321 64.2765 112° Southeast  Level Estimated
05:52PM 36.8858 64.4187 112° Southeast  Level Estimated
05:53PM 36.8393 64.5607 112° Southeast  Level Estimated
05:54PM 36.7927 64.7025 112° Southeast  Level Estimated
05:55PM 36.7459 64.8441 112° Southeast  Level Estimated
05:56PM 36.6989 64.9856 112° Southeast  Level Estimated
05:57PM 36.6518 65.1269 113° Southeast  Level Estimated
05:58PM 36.6045 65.2680 113° Southeast  Level Estimated
05:59PM 36.5570 65.4090 113° Southeast  Level Estimated
06:00PM 36.5094 65.5498 113° Southeast  Level Estimated
06:01PM 36.4616 65.6904 113° Southeast  Level Estimated
06:02PM 36.4136 65.8308 113° Southeast  Level Estimated
06:03PM 36.3655 65.9711 113° Southeast  Level Estimated
06:04PM 36.3172 66.1112 113° Southeast  Level Estimated
06:05PM 36.2687 66.2511 113° Southeast  Level Estimated
06:06PM 36.2201 66.3908 113° Southeast  Level Estimated
06:07PM 36.1713 66.5304 113° Southeast  Level Estimated
06:08PM 36.1223 66.6698 113° Southeast  Level Estimated
06:09PM 36.0732 66.8090 114° Southeast  Level Estimated
06:10PM 36.0240 66.9480 114° Southeast  Level Estimated
06:11PM 35.9745 67.0869 114° Southeast  Level Estimated
06:12PM 35.9249 67.2256 114° Southeast  Level Estimated
06:13PM 35.8752 67.3641 114° Southeast  Level Estimated
06:14PM 35.8253 67.5024 114° Southeast  Level Estimated
06:15PM 35.7752 67.6406 114° Southeast  Level Estimated
06:16PM 35.7250 67.7786 114° Southeast  Level Estimated
06:17PM 35.6746 67.9164 114° Southeast  Level Estimated
06:18PM 35.6241 68.0541 114° Southeast  Level Estimated
06:19PM 35.5734 68.1916 114° Southeast  Level Estimated
06:20PM 35.5225 68.3289 114° Southeast  Level Estimated
06:21PM 35.4715 68.4660 115° Southeast  Level Estimated
06:22PM 35.4204 68.6030 115° Southeast  Level Estimated
06:23PM 35.3691 68.7397 115° Southeast  Level Estimated
06:24PM 35.3176 68.8763 115° Southeast  Level Estimated
06:25PM 35.2660 69.0128 115° Southeast  Level Estimated
06:26PM 35.2142 69.1490 115° Southeast  Level Estimated
06:27PM 35.1623 69.2851 115° Southeast  Level Estimated
06:28PM 35.1102 69.4210 115° Southeast  Level Estimated
06:29PM 35.0580 69.5567 115° Southeast  Level Estimated
06:30PM 35.0056 69.6923 115° Southeast  Level Estimated
06:31PM 34.9530 69.8277 115° Southeast  Level Estimated
06:32PM 34.9004 69.9629 115° Southeast  Level Estimated
06:33PM 34.8475 70.0979 115° Southeast  Level Estimated
06:33PM 32.4390 70.1050 115° Southeast 475 547 35,000  Level FlightAware
06:33PM 32.4360 70.1380 96° East 477 549 35,000  Level FlightAware
06:34PM 32.4520 70.2130 76° East 470 541 35,000  Level FlightAware
06:34PM 32.4900 70.2650 49° Northeast 458 527 35,000  Level FlightAware
06:35PM 32.5710 70.3220 31° Northeast 451 519 35,000  Level FlightAware
06:35PM 32.6440 70.3740 31° Northeast 453 521 35,000  Level FlightAware
06:36PM 32.7120 70.4260 33° Northeast 466 536 35,000  Level FlightAware
06:37PM 32.7950 70.4890 33° Northeast 467 537 35,000  Level FlightAware
06:38PM 32.8660 70.5430 33° Northeast 469 540 35,000  Level FlightAware
06:38PM 32.9510 70.6090 33° Northeast 471 542 35,000  Level FlightAware
06:39PM 33.0270 70.6640 31° Northeast 472 543 35,000 -660 Level FlightAware
06:40PM 33.1070 70.7230 32° Northeast 453 521 34,100 -1,320 Descending FlightAware
06:40PM 33.1770 70.7750 32° Northeast 441 507 33,200 -1,320 Descending FlightAware
06:41PM 33.2460 70.8270 32° Northeast 438 504 32,400 -1,080 Descending FlightAware
06:42PM 33.3210 70.8830 32° Northeast 437 503 31,700 -900 Descending FlightAware
06:42PM 33.3930 70.9360 32° Northeast 430 495 31,200 -540 Descending FlightAware
06:43PM 33.4620 70.9980 37° Northeast 429 494 31,000 -480 Descending FlightAware
06:44PM 33.4910 71.0850 68° East 422 486 30,600 -1,620 Descending FlightAware
06:45PM 33.4970 71.1810 86° East 427 491 28,900 -2,220 Descending FlightAware
06:45PM 33.5040 71.2860 85° East 417 480 27,500 -1,740 Descending FlightAware
06:46PM 33.5100 71.3770 85° East 402 463 26,500 -1,440 Descending FlightAware
06:47PM 33.5160 71.4710 86° East 384 442 25,500 -1,560 Descending FlightAware
06:47PM 33.5210 71.5570 86° East 379 436 24,300 -1,800 Descending FlightAware
06:48PM 33.5260 71.6390 86° East 382 440 23,100 -1,740 Descending FlightAware
06:49PM 33.5310 71.7330 86° East 374 430 21,900 -1,680 Descending FlightAware
06:49PM 33.5360 71.8140 86° East 367 422 20,800 -1,680 Descending FlightAware
06:50PM 33.5420 71.9070 86° East 360 414 19,600 -1,560 Descending FlightAware
06:51PM 33.5460 71.9850 86° East 354 407 18,600 -1,620 Descending FlightAware
06:52PM 33.5510 72.0630 86° East 348 400 17,500 -1,680 Descending FlightAware
06:52PM 33.5560 72.1510 86° East 339 390 16,300 -1,560 Descending FlightAware
06:53PM 33.5600 72.2250 86° East 332 382 15,300 -1,200 Descending FlightAware
06:54PM 33.5640 72.2970 86° East 317 365 14,700 -960 Descending FlightAware
06:54PM 33.5670 72.3550 86° East 311 358 14,100 -1,140 Descending FlightAware
06:55PM 33.5600 72.4010 100° East 306 352 13,600 -1,200 Descending FlightAware
06:55PM 33.5480 72.4650 103° East 303 349 12,800 -1,200 Descending FlightAware
06:56PM 33.5330 72.5370 104° East 302 348 11,900 -1,380 Descending FlightAware
06:57PM 33.5210 72.5960 104° East 302 348 11,000 -1,320 Descending FlightAware
06:57PM 33.5080 72.6650 103° East 287 330 10,200 -1,140 Descending FlightAware
06:58PM 33.5000 72.7120 102° East 282 325 9,600 -1,140 Descending FlightAware
06:58PM 33.4930 72.7510 102° East 280 322 9,200 -1,020 Descending FlightAware
06:59PM 33.4850 72.7940 103° East 276 318 8,700 -1,140 Descending FlightAware
06:59PM 33.4770 72.8410 102° East 276 318 8,100 -1,200 Descending FlightAware
07:00PM 33.4730 72.8620 103° East 277 319 7,800 -1,200 Descending FlightAware
07:00PM 33.4710 72.9030 93° East 274 315 7,300 -1,020 Descending FlightAware
07:00PM 33.4690 72.9470 93° East 261 300 6,900 -780 Descending FlightAware
07:01PM 33.4670 72.9800 94° East 251 289 6,600 -780 Descending FlightAware
07:01PM 33.4650 73.0220 93° East 243 280 6,200 -840 Descending FlightAware
07:02PM 33.4640 73.0440 93° East 241 277 6,000 -600 Descending FlightAware
07:02PM 33.4620 73.0740 95° East 239 275 5,800 -660 Descending FlightAware
07:03PM 33.4600 73.1150 93° East 241 277 5,400 -720 Descending FlightAware
07:03PM 33.4590 73.1330 94° East 237 273 5,300 -720 Descending FlightAware
07:03PM 33.4620 73.1740 85° East 225 259 4,900 -660 Descending FlightAware
07:04PM 33.4640 73.2030 85° East 221 254 4,700 -600 Descending FlightAware
07:04PM 33.4650 73.2230 87° East 221 254 4,500 -600 Descending FlightAware
07:04PM 33.4700 73.2390 69° East 214 246 4,400 -480 Descending FlightAware
07:05PM 33.4810 73.2650 63° Northeast 200 230 4,200 -240 Descending FlightAware
07:05PM 33.4930 73.2930 63° Northeast 179 206 4,200  Level FlightAware
07:05PM 33.5000 73.3030 50° Northeast 174 200 4,200  Level FlightAware
07:06PM 33.5090 73.3050 10° North 179 206 4,200  Level FlightAware
07:06PM 33.5300 73.2890 328° Northwest 195 224 4,200  Level FlightAware
07:06PM 33.5380 73.2740 303° West 196 226 4,200  Level FlightAware
07:07PM 33.5470 73.2540 298° West 185 213 4,200 -360 Level FlightAware
07:07PM 33.5610 73.2230 298° West 192 221 3,900 -840 Descending FlightAware
07:07PM 33.5670 73.2090 297° West 186 214 3,600 -900 Descending FlightAware
07:08PM 33.5760 73.1880 297° West 172 198 3,300 -900 Descending FlightAware
07:08PM 33.5880 73.1630 300° West 172 198 2,800 -900 Descending FlightAware
07:09PM 33.5980 73.1420 300° West 170 196 2,500 -900 Descending FlightAware
07:09PM 33.6080 73.1170 296° West 162 186 2,000 -540 Descending FlightAware
07:10PM 33.6180 73.0960 300° West 160 184 2,000 -120 Level FlightAware
07:10PM 33.6200 73.0920 301° West 157 181 1,900 -180 Descending FlightAware
07:11PM 33.6220 73.0880 301° West 157 181 1,900  Level FlightAware
07:11PM 33.6230 73.0860 301° West 157 181 1,900  Level FlightAware
07:12PM 33.6300 73.0680 295° West 157 181 1,900  Level FlightAware
07:12PM 33.6200 73.0920 117° Southeast 157 181 1,900  Level FlightAware
07:15PM 33.6166 73.0992 119° Southeast  Level Estimated